createdAt,value
2019-05-11T00:02:21.710Z,100337.00
2019-05-11T00:04:52.075Z,100318.00
2019-05-11T00:07:23.846Z,100315.00
2019-05-11T00:09:58.089Z,100311.00
2019-05-11T00:12:27.231Z,100302.00
2019-05-11T00:14:57.591Z,100307.00
2019-05-11T00:17:28.064Z,100318.00
2019-05-11T00:20:05.625Z,100299.00
2019-05-11T00:22:36.001Z,100314.00
2019-05-11T00:25:07.731Z,100312.00
2019-05-11T00:27:38.864Z,100309.00
2019-05-11T00:30:10.486Z,100323.00
2019-05-11T00:32:53.137Z,100323.00
2019-05-11T00:35:23.702Z,100315.00
2019-05-11T00:37:54.316Z,100309.00
2019-05-11T00:40:24.711Z,100313.00
2019-05-11T00:43:08.371Z,100314.00
2019-05-11T00:45:38.805Z,100333.00
2019-05-11T00:48:09.192Z,100320.00
2019-05-11T00:50:40.129Z,100332.00
2019-05-11T00:53:11.321Z,100338.00
2019-05-11T00:55:42.114Z,100336.00
2019-05-11T00:58:12.849Z,100326.00
2019-05-11T01:00:43.426Z,100313.00
2019-05-11T01:03:14.162Z,100314.00
2019-05-11T01:05:44.523Z,100304.00
2019-05-11T01:08:15.248Z,100301.00
2019-05-11T01:10:46.488Z,100312.00
2019-05-11T01:13:16.909Z,100310.00
2019-05-11T01:15:47.358Z,100314.00
2019-05-11T01:18:18.043Z,100311.00
2019-05-11T01:20:48.393Z,100310.00
2019-05-11T01:23:18.732Z,100309.00
2019-05-11T01:25:49.127Z,100306.00
2019-05-11T01:28:19.768Z,100301.00
2019-05-11T01:30:50.136Z,100303.00
2019-05-11T01:33:20.522Z,100301.00
2019-05-11T01:35:51.282Z,100306.00
2019-05-11T01:38:21.813Z,100305.00
2019-05-11T01:40:58.605Z,100312.00
2019-05-11T01:43:24.355Z,100306.00
2019-05-11T01:45:55.699Z,100307.00
2019-05-11T01:48:26.101Z,100306.00
2019-05-11T01:50:56.703Z,100297.00
2019-05-11T01:53:27.027Z,100289.00
2019-05-11T01:55:57.842Z,100284.00
2019-05-11T01:58:28.804Z,100283.00
2019-05-11T02:00:59.206Z,100290.00
2019-05-11T02:03:29.855Z,100290.00
2019-05-11T02:06:00.541Z,100296.00
2019-05-11T02:08:30.895Z,100306.00
2019-05-11T02:11:14.936Z,100305.00
2019-05-11T02:13:33.822Z,100304.00
2019-05-11T02:16:04.721Z,100297.00
2019-05-11T02:18:36.548Z,100305.00
2019-05-11T02:21:06.956Z,100308.00
2019-05-11T02:23:37.477Z,100311.00
2019-05-11T02:26:08.518Z,100311.00
2019-05-11T02:28:39.239Z,100318.00
2019-05-11T02:31:10.221Z,100305.00
2019-05-11T02:33:41.025Z,100302.00
2019-05-11T02:36:11.782Z,100304.00
2019-05-11T02:38:42.671Z,100296.00
2019-05-11T02:41:13.263Z,100306.00
2019-05-11T02:43:43.709Z,100297.00
2019-05-11T02:46:14.382Z,100303.00
2019-05-11T02:48:44.853Z,100297.00
2019-05-11T02:51:16.118Z,100301.00
2019-05-11T02:53:48.780Z,100302.00
2019-05-11T02:56:19.188Z,100290.00
2019-05-11T02:58:50.486Z,100298.00
2019-05-11T03:01:24.138Z,100292.00
2019-05-11T03:03:54.958Z,100288.00
2019-05-11T03:06:25.651Z,100299.00
2019-05-11T03:08:56.306Z,100291.00
2019-05-11T03:11:26.697Z,100284.00
2019-05-11T03:13:57.726Z,100272.00
2019-05-11T03:16:28.558Z,100282.00
2019-05-11T03:18:58.946Z,100278.00
2019-05-11T03:21:29.399Z,100276.00
2019-05-11T03:24:00.669Z,100285.00
2019-05-11T03:26:31.104Z,100295.00
2019-05-11T03:29:01.532Z,100301.00
2019-05-11T03:31:32.001Z,100298.00
2019-05-11T03:34:02.379Z,100306.00
2019-05-11T03:36:33.021Z,100302.00
2019-05-11T03:39:03.845Z,100309.00
2019-05-11T03:41:34.534Z,100306.00
2019-05-11T03:44:05.213Z,100318.00
2019-05-11T03:46:35.860Z,100312.00
2019-05-11T03:49:06.240Z,100310.00
2019-05-11T03:51:38.791Z,100324.00
2019-05-11T03:54:09.538Z,100317.00
2019-05-11T03:56:40.568Z,100330.00
2019-05-11T03:59:10.992Z,100330.00
2019-05-11T04:01:41.642Z,100335.00
2019-05-11T04:04:16.180Z,100336.00
2019-05-11T04:06:44.993Z,100331.00
2019-05-11T04:09:15.807Z,100340.00
2019-05-11T04:11:46.350Z,100341.00
2019-05-11T04:14:17.260Z,100333.00
2019-05-11T04:16:47.919Z,100326.00
2019-05-11T04:19:18.560Z,100336.00
2019-05-11T04:21:49.432Z,100333.00
2019-05-11T04:24:19.925Z,100323.00
2019-05-11T04:26:50.391Z,100314.00
2019-05-11T04:29:20.777Z,100309.00
2019-05-11T04:31:51.195Z,100303.00
2019-05-11T04:34:21.939Z,100308.00
2019-05-11T04:36:52.685Z,100315.00
2019-05-11T04:39:23.145Z,100314.00
2019-05-11T04:41:54.546Z,100320.00
2019-05-11T04:44:25.024Z,100306.00
2019-05-11T04:46:55.505Z,100319.00
2019-05-11T04:49:25.985Z,100321.00
2019-05-11T04:51:56.673Z,100335.00
2019-05-11T04:54:27.145Z,100331.00
2019-05-11T04:56:58.207Z,100324.00
2019-05-11T04:59:28.931Z,100335.00
2019-05-11T05:01:59.333Z,100335.00
2019-05-11T05:04:29.790Z,100335.00
2019-05-11T05:07:05.130Z,100335.00
2019-05-11T05:09:36.051Z,100321.00
2019-05-11T05:12:08.584Z,100326.00
2019-05-11T05:14:37.274Z,100333.00
2019-05-11T05:17:07.692Z,100323.00
2019-05-11T05:19:38.119Z,100333.00
2019-05-11T05:22:08.445Z,100342.00
2019-05-11T05:24:39.155Z,100339.00
2019-05-11T05:27:11.600Z,100339.00
2019-05-11T05:29:42.425Z,100341.00
2019-05-11T05:32:13.515Z,100339.00
2019-05-11T05:34:43.983Z,100340.00
2019-05-11T05:37:17.873Z,100348.00
2019-05-11T05:39:48.348Z,100347.00
2019-05-11T05:42:20.712Z,100347.00
2019-05-11T05:44:51.561Z,100350.00
2019-05-11T05:47:21.998Z,100337.00
2019-05-11T05:49:52.627Z,100346.00
2019-05-11T05:52:23.099Z,100358.00
2019-05-11T05:54:53.948Z,100363.00
2019-05-11T05:57:24.398Z,100363.00
2019-05-11T05:59:55.043Z,100368.00
2019-05-11T06:02:25.645Z,100370.00
2019-05-11T06:04:56.037Z,100371.00
2019-05-11T06:07:26.407Z,100374.00
2019-05-11T06:09:56.702Z,100367.00
2019-05-11T06:12:29.336Z,100374.00
2019-05-11T06:14:59.800Z,100363.00
2019-05-11T06:17:31.286Z,100370.00
2019-05-11T06:20:02.374Z,100364.00
2019-05-11T06:22:33.167Z,100360.00
2019-05-11T06:25:03.851Z,100362.00
2019-05-11T06:27:34.587Z,100365.00
2019-05-11T06:30:05.425Z,100366.00
2019-05-11T06:32:36.202Z,100360.00
2019-05-11T06:35:07.954Z,100377.00
2019-05-11T06:37:38.308Z,100368.00
2019-05-11T06:40:09.693Z,100373.00
2019-05-11T06:42:40.016Z,100383.00
2019-05-11T06:45:10.964Z,100371.00
2019-05-11T06:47:41.618Z,100376.00
2019-05-11T06:50:31.117Z,100379.00
2019-05-11T06:53:01.844Z,100381.00
2019-05-11T06:55:32.312Z,100381.00
2019-05-11T06:58:02.786Z,100388.00
2019-05-11T07:00:33.303Z,100388.00
2019-05-11T07:03:03.784Z,100387.00
2019-05-11T07:05:34.716Z,100397.00
2019-05-11T07:08:05.070Z,100400.00
2019-05-11T07:10:35.486Z,100395.00
2019-05-11T07:13:05.896Z,100398.00
2019-05-11T07:15:36.360Z,100394.00
2019-05-11T07:18:06.836Z,100400.00
2019-05-11T07:20:49.418Z,100400.00
2019-05-11T07:23:17.579Z,100413.00
2019-05-11T07:25:48.037Z,100418.00
2019-05-11T07:28:18.427Z,100415.00
2019-05-11T07:30:48.830Z,100416.00
2019-05-11T07:33:19.742Z,100407.00
2019-05-11T07:35:51.047Z,100414.00
2019-05-11T07:38:21.452Z,100404.00
2019-05-11T07:40:52.025Z,100408.00
2019-05-11T07:43:22.458Z,100408.00
2019-05-11T07:45:52.958Z,100420.00
2019-05-11T07:48:23.360Z,100413.00
2019-05-11T07:50:53.998Z,100411.00
2019-05-11T07:53:24.413Z,100416.00
2019-05-11T07:55:57.699Z,100427.00
2019-05-11T07:58:28.823Z,100426.00
2019-05-11T08:00:59.399Z,100429.00
2019-05-11T08:03:30.388Z,100435.00
2019-05-11T08:06:02.836Z,100430.00
2019-05-11T08:08:33.424Z,100443.00
2019-05-11T08:11:04.146Z,100440.00
2019-05-11T08:13:34.629Z,100443.00
2019-05-11T08:16:05.039Z,100438.00
2019-05-11T08:18:35.428Z,100428.00
2019-05-11T08:21:05.896Z,100440.00
2019-05-11T08:23:37.703Z,100446.00
2019-05-11T08:26:28.237Z,100445.00
2019-05-11T08:28:59.249Z,100450.00
2019-05-11T08:31:29.900Z,100445.00
2019-05-11T08:34:04.753Z,100466.00
2019-05-11T08:36:37.796Z,100467.00
2019-05-11T08:39:09.559Z,100470.00
2019-05-11T08:41:40.742Z,100473.00
2019-05-11T08:44:12.462Z,100480.00
2019-05-11T08:46:43.110Z,100483.00
2019-05-11T08:49:15.771Z,100479.00
2019-05-11T08:51:47.821Z,100495.00
2019-05-11T08:54:19.331Z,100485.00
2019-05-11T08:56:49.778Z,100488.00
2019-05-11T08:59:20.569Z,100489.00
2019-05-11T09:01:51.245Z,100496.00
2019-05-11T09:04:21.933Z,100491.00
2019-05-11T09:06:52.627Z,100494.00
2019-05-11T09:09:23.351Z,100511.00
2019-05-11T09:11:53.909Z,100496.00
2019-05-11T09:14:24.827Z,100511.00
2019-05-11T09:16:57.593Z,100518.00
2019-05-11T09:19:28.614Z,100522.00
2019-05-11T09:22:02.897Z,100511.00
2019-05-11T09:24:32.213Z,100526.00
2019-05-11T09:27:02.862Z,100526.00
2019-05-11T09:29:33.632Z,100546.00
2019-05-11T09:32:04.015Z,100536.00
2019-05-11T09:34:34.741Z,100549.00
2019-05-11T09:37:05.144Z,100542.00
2019-05-11T09:39:35.545Z,100544.00
2019-05-11T09:42:07.753Z,100551.00
2019-05-11T09:44:38.225Z,100561.00
2019-05-11T09:47:08.656Z,100564.00
2019-05-11T09:49:46.430Z,100562.00
2019-05-11T09:52:11.140Z,100567.00
2019-05-11T09:55:01.067Z,100571.00
2019-05-11T09:57:31.781Z,100571.00
2019-05-11T10:00:02.159Z,100571.00
2019-05-11T10:02:32.558Z,100586.00
2019-05-11T10:05:04.134Z,100581.00
2019-05-11T10:07:34.554Z,100586.00
2019-05-11T10:10:05.619Z,100588.00
2019-05-11T10:12:37.981Z,100582.00
2019-05-11T10:15:09.678Z,100587.00
2019-05-11T10:17:40.030Z,100596.00
2019-05-11T10:20:10.601Z,100592.00
2019-05-11T10:22:57.970Z,100592.00
2019-05-11T10:25:28.791Z,100590.00
2019-05-11T10:27:59.805Z,100599.00
2019-05-11T10:30:30.758Z,100609.00
2019-05-11T10:33:02.194Z,100610.00
2019-05-11T10:35:32.682Z,100605.00
2019-05-11T10:38:03.384Z,100606.00
2019-05-11T10:40:33.859Z,100612.00
2019-05-11T10:43:04.615Z,100614.00
2019-05-11T10:45:37.746Z,100615.00
2019-05-11T10:48:22.382Z,100611.00
2019-05-11T10:50:52.783Z,100614.00
2019-05-11T10:53:23.526Z,100622.00
2019-05-11T10:55:54.659Z,100630.00
2019-05-11T10:58:25.052Z,100632.00
2019-05-11T11:00:55.480Z,100630.00
2019-05-11T11:03:28.363Z,100629.00
2019-05-11T11:05:58.562Z,100632.00
2019-05-11T11:08:29.173Z,100642.00
2019-05-11T11:10:59.630Z,100634.00
2019-05-11T11:13:30.026Z,100634.00
2019-05-11T11:16:02.138Z,100644.00
2019-05-11T11:18:32.785Z,100645.00
2019-05-11T11:21:03.541Z,100647.00
2019-05-11T11:23:34.011Z,100655.00
2019-05-11T11:26:04.517Z,100656.00
2019-05-11T11:28:34.898Z,100655.00
2019-05-11T11:31:07.593Z,100652.00
2019-05-11T11:33:38.229Z,100647.00
2019-05-11T11:36:08.777Z,100651.00
2019-05-11T11:38:39.183Z,100658.00
2019-05-11T11:41:09.629Z,100658.00
2019-05-11T11:43:40.464Z,100650.00
2019-05-11T11:46:11.467Z,100658.00
2019-05-11T11:48:42.642Z,100658.00
2019-05-11T11:51:12.980Z,100661.00
2019-05-11T11:53:43.401Z,100662.00
2019-05-11T11:56:13.855Z,100662.00
2019-05-11T11:58:44.247Z,100664.00
2019-05-11T12:01:14.817Z,100654.00
2019-05-11T12:03:48.808Z,100655.00
2019-05-11T12:06:19.593Z,100657.00
2019-05-11T12:08:49.999Z,100649.00
2019-05-11T12:11:20.471Z,100661.00
2019-05-11T12:13:50.841Z,100671.00
2019-05-11T12:16:21.535Z,100659.00
2019-05-11T12:18:52.375Z,100666.00
2019-05-11T12:21:23.310Z,100676.00
2019-05-11T12:23:54.145Z,100668.00
2019-05-11T12:26:24.884Z,100660.00
2019-05-11T12:28:57.543Z,100681.00
2019-05-11T12:31:30.652Z,100682.00
2019-05-11T12:33:59.907Z,100680.00
2019-05-11T12:36:30.615Z,100681.00
2019-05-11T12:39:01.511Z,100681.00
2019-05-11T12:41:32.287Z,100687.00
2019-05-11T12:44:02.725Z,100681.00
2019-05-11T12:46:35.165Z,100693.00
2019-05-11T12:49:07.854Z,100696.00
2019-05-11T12:51:45.296Z,100699.00
2019-05-11T12:54:15.631Z,100703.00
2019-05-11T12:56:48.726Z,100707.00
2019-05-11T12:59:18.978Z,100711.00
2019-05-11T13:01:59.126Z,100707.00
2019-05-11T13:04:28.961Z,100713.00
2019-05-11T13:07:00.321Z,100715.00
2019-05-11T13:09:30.949Z,100717.00
2019-05-11T13:12:01.312Z,100719.00
2019-05-11T13:14:34.954Z,100712.00
2019-05-11T13:17:07.710Z,100733.00
2019-05-11T13:19:48.010Z,100722.00
2019-05-11T13:22:18.555Z,100719.00
2019-05-11T13:24:48.913Z,100735.00
2019-05-11T13:27:19.520Z,100729.00
2019-05-11T13:29:50.533Z,100743.00
2019-05-11T13:32:21.501Z,100748.00
2019-05-11T13:34:52.421Z,100756.00
2019-05-11T13:37:23.163Z,100744.00
2019-05-11T13:39:53.485Z,100756.00
2019-05-11T13:42:23.837Z,100760.00
2019-05-11T13:44:55.257Z,100754.00
2019-05-11T13:47:28.141Z,100763.00
2019-05-11T13:50:07.785Z,100764.00
2019-05-11T13:52:38.653Z,100772.00
2019-05-11T13:55:10.128Z,100761.00
2019-05-11T13:57:41.378Z,100767.00
2019-05-11T14:00:12.455Z,100773.00
2019-05-11T14:02:42.834Z,100769.00
2019-05-11T14:05:13.254Z,100785.00
2019-05-11T14:07:44.154Z,100786.00
2019-05-11T14:10:14.723Z,100793.00
2019-05-11T14:12:47.530Z,100795.00
2019-05-11T14:15:18.787Z,100796.00
2019-05-11T14:18:03.527Z,100797.00
2019-05-11T14:20:22.566Z,100799.00
2019-05-11T14:22:52.955Z,100803.00
2019-05-11T14:25:23.701Z,100804.00
2019-05-11T14:27:54.087Z,100807.00
2019-05-11T14:30:24.543Z,100819.00
2019-05-11T14:33:03.300Z,100826.00
2019-05-11T14:35:33.808Z,100823.00
2019-05-11T14:38:04.179Z,100825.00
2019-05-11T14:40:34.634Z,100833.00
2019-05-11T14:43:05.110Z,100836.00
2019-05-11T14:45:35.518Z,100835.00
2019-05-11T14:48:22.205Z,100849.00
2019-05-11T14:50:38.776Z,100856.00
2019-05-11T14:53:09.191Z,100858.00
2019-05-11T14:55:39.800Z,100864.00
2019-05-11T14:58:10.519Z,100860.00
2019-05-11T15:00:41.394Z,100863.00
2019-05-11T15:03:11.739Z,100870.00
2019-05-11T15:05:42.531Z,100864.00
2019-05-11T15:08:13.056Z,100877.00
2019-05-11T15:10:43.553Z,100884.00
2019-05-11T15:13:14.170Z,100884.00
2019-05-11T15:15:44.662Z,100888.00
2019-05-11T15:18:15.001Z,100895.00
2019-05-11T15:20:47.771Z,100905.00
2019-05-11T15:23:18.157Z,100901.00
2019-05-11T15:25:48.881Z,100903.00
2019-05-11T15:28:25.142Z,100899.00
2019-05-11T15:30:55.494Z,100909.00
2019-05-11T15:33:27.888Z,100910.00
2019-05-11T15:36:01.372Z,100919.00
2019-05-11T15:38:31.908Z,100914.00
2019-05-11T15:41:02.262Z,100923.00
2019-05-11T15:43:38.888Z,100928.00
2019-05-11T15:46:09.464Z,100922.00
2019-05-11T15:48:55.832Z,100940.00
2019-05-11T15:51:12.923Z,100950.00
2019-05-11T15:53:43.646Z,100962.00
2019-05-11T15:56:14.254Z,100954.00
2019-05-11T15:58:44.607Z,100960.00
2019-05-11T16:01:15.036Z,100966.00
2019-05-11T16:03:49.770Z,100975.00
2019-05-11T16:06:18.647Z,100977.00
2019-05-11T16:08:49.372Z,100977.00
2019-05-11T16:11:19.702Z,100985.00
2019-05-11T16:13:50.338Z,100985.00
2019-05-11T16:16:25.410Z,100995.00
2019-05-11T16:19:10.193Z,101009.00
2019-05-11T16:21:28.673Z,101002.00
2019-05-11T16:23:59.455Z,101010.00
2019-05-11T16:26:30.056Z,101016.00
2019-05-11T16:29:00.714Z,101009.00
2019-05-11T16:31:31.080Z,101032.00
2019-05-11T16:34:02.795Z,101027.00
2019-05-11T16:36:33.735Z,101025.00
2019-05-11T16:39:10.086Z,101029.00
2019-05-11T16:41:39.555Z,101032.00
2019-05-11T16:44:09.931Z,101038.00
2019-05-11T16:46:40.771Z,101046.00
2019-05-11T16:49:23.997Z,101051.00
2019-05-11T16:51:44.526Z,101064.00
2019-05-11T16:54:15.318Z,101057.00
2019-05-11T16:56:45.735Z,101054.00
2019-05-11T16:59:18.186Z,101069.00
2019-05-11T17:01:48.394Z,101069.00
2019-05-11T17:04:18.957Z,101083.00
2019-05-11T17:06:49.567Z,101087.00
2019-05-11T17:09:20.009Z,101094.00
2019-05-11T17:11:50.357Z,101109.00
2019-05-11T17:14:37.223Z,101107.00
2019-05-11T17:17:08.221Z,101117.00
2019-05-11T17:19:45.261Z,101132.00
2019-05-11T17:22:14.553Z,101129.00
2019-05-11T17:24:48.473Z,101128.00
2019-05-11T17:27:18.964Z,101129.00
2019-05-11T17:29:49.700Z,101137.00
2019-05-11T17:32:20.417Z,101132.00
2019-05-11T17:34:50.799Z,101142.00
2019-05-11T17:37:21.175Z,101154.00
2019-05-11T17:39:51.846Z,101162.00
2019-05-11T17:42:23.256Z,101164.00
2019-05-11T17:45:12.975Z,101173.00
2019-05-11T17:47:46.370Z,101186.00
2019-05-11T17:50:19.225Z,101180.00
2019-05-11T17:52:49.576Z,101194.00
2019-05-11T17:55:20.015Z,101198.00
2019-05-11T17:57:53.944Z,101200.00
2019-05-11T18:00:31.255Z,101196.00
2019-05-11T18:03:01.696Z,101208.00
2019-05-11T18:05:42.592Z,101219.00
2019-05-11T18:08:12.974Z,101219.00
2019-05-11T18:10:45.124Z,101210.00
2019-05-11T18:13:16.051Z,101220.00
2019-05-11T18:15:52.727Z,101214.00
2019-05-11T18:18:24.293Z,101222.00
2019-05-11T18:20:59.840Z,101232.00
2019-05-11T18:23:30.567Z,101244.00
2019-05-11T18:26:01.162Z,101256.00
2019-05-11T18:28:32.218Z,101259.00
2019-05-11T18:31:04.055Z,101261.00
2019-05-11T18:33:34.915Z,101271.00
2019-05-11T18:36:07.885Z,101283.00
2019-05-11T18:38:38.985Z,101285.00
2019-05-11T18:41:10.254Z,101288.00
2019-05-11T18:43:42.368Z,101302.00
2019-05-11T18:46:13.724Z,101307.00
2019-05-11T18:48:45.067Z,101312.00
2019-05-11T18:51:16.391Z,101329.00
2019-05-11T18:53:48.256Z,101326.00
2019-05-11T18:56:19.264Z,101327.00
2019-05-11T18:58:49.969Z,101339.00
2019-05-11T19:01:22.753Z,101336.00
2019-05-11T19:03:53.272Z,101332.00
2019-05-11T19:06:42.773Z,101338.00
2019-05-11T19:09:13.358Z,101348.00
2019-05-11T19:11:43.725Z,101357.00
2019-05-11T19:14:14.098Z,101356.00
2019-05-11T19:16:44.727Z,101362.00
2019-05-11T19:19:28.568Z,101370.00
2019-05-11T19:21:58.925Z,101382.00
2019-05-11T19:24:38.339Z,101380.00
2019-05-11T19:27:09.973Z,101391.00
2019-05-11T19:29:40.699Z,101395.00
2019-05-11T19:32:15.771Z,101406.00
2019-05-11T19:34:47.798Z,101414.00
2019-05-11T19:37:21.773Z,101411.00
2019-05-11T19:39:52.204Z,101413.00
2019-05-11T19:42:23.214Z,101416.00
2019-05-11T19:44:53.692Z,101424.00
2019-05-11T19:47:24.547Z,101420.00
2019-05-11T19:49:55.022Z,101434.00
2019-05-11T19:52:31.273Z,101428.00
2019-05-11T19:55:01.956Z,101440.00
2019-05-11T19:57:33.023Z,101457.00
2019-05-11T20:00:03.390Z,101452.00
2019-05-11T20:02:33.794Z,101453.00
2019-05-11T20:05:05.575Z,101462.00
2019-05-11T20:07:37.777Z,101462.00
2019-05-11T20:10:08.065Z,101467.00
2019-05-11T20:12:41.626Z,101462.00
2019-05-11T20:15:10.858Z,101475.00
2019-05-11T20:17:41.856Z,101468.00
2019-05-11T20:20:12.639Z,101474.00
2019-05-11T20:22:43.015Z,101487.00
2019-05-11T20:25:18.429Z,101491.00
2019-05-11T20:27:49.249Z,101490.00
2019-05-11T20:30:20.081Z,101496.00
2019-05-11T20:32:50.777Z,101505.00
2019-05-11T20:35:22.143Z,101508.00
2019-05-11T20:38:12.005Z,101516.00
2019-05-11T20:40:42.469Z,101505.00
2019-05-11T20:43:12.952Z,101503.00
2019-05-11T20:45:44.324Z,101518.00
2019-05-11T20:48:14.833Z,101515.00
2019-05-11T20:50:45.323Z,101519.00
2019-05-11T20:53:17.479Z,101520.00
2019-05-11T20:55:48.032Z,101540.00
2019-05-11T20:58:19.046Z,101544.00
2019-05-11T21:00:49.544Z,101545.00
2019-05-11T21:03:20.281Z,101553.00
2019-05-11T21:05:51.141Z,101561.00
2019-05-11T21:08:21.574Z,101561.00
2019-05-11T21:10:52.053Z,101565.00
2019-05-11T21:13:24.241Z,101567.00
2019-05-11T21:15:54.901Z,101574.00
2019-05-11T21:18:25.738Z,101577.00
2019-05-11T21:20:57.671Z,101583.00
2019-05-11T21:23:29.046Z,101586.00
2019-05-11T21:26:00.164Z,101578.00
2019-05-11T21:28:30.796Z,101580.00
2019-05-11T21:31:01.230Z,101577.00
2019-05-11T21:33:31.580Z,101591.00
2019-05-11T21:36:02.410Z,101596.00
2019-05-11T21:38:45.438Z,101601.00
2019-05-11T21:41:17.498Z,101596.00
2019-05-11T21:43:48.535Z,101604.00
2019-05-11T21:46:19.060Z,101598.00
2019-05-11T21:48:49.832Z,101607.00
2019-05-11T21:51:20.323Z,101606.00
2019-05-11T21:53:51.156Z,101616.00
2019-05-11T21:56:22.029Z,101623.00
2019-05-11T21:58:53.757Z,101619.00
2019-05-11T22:01:24.343Z,101625.00
2019-05-11T22:03:54.764Z,101630.00
2019-05-11T22:06:25.105Z,101629.00
2019-05-11T22:08:55.437Z,101637.00
2019-05-11T22:11:28.330Z,101634.00
2019-05-11T22:13:58.448Z,101642.00
2019-05-11T22:16:30.432Z,101647.00
2019-05-11T22:19:02.063Z,101651.00
2019-05-11T22:21:32.408Z,101661.00
2019-05-11T22:24:03.299Z,101651.00
2019-05-11T22:26:34.084Z,101655.00
2019-05-11T22:29:04.584Z,101654.00
2019-05-11T22:31:35.352Z,101652.00
2019-05-11T22:34:05.848Z,101661.00
2019-05-11T22:36:38.558Z,101670.00
2019-05-11T22:39:09.792Z,101675.00
2019-05-11T22:41:40.265Z,101672.00
2019-05-11T22:44:11.221Z,101675.00
2019-05-11T22:46:41.676Z,101682.00
2019-05-11T22:49:13.039Z,101682.00
2019-05-11T22:52:36.166Z,101676.00
2019-05-11T22:55:01.160Z,101674.00
2019-05-11T22:57:31.663Z,101681.00
2019-05-11T23:00:02.204Z,101684.00
2019-05-11T23:02:33.838Z,101689.00
2019-05-11T23:05:04.860Z,101693.00
2019-05-11T23:07:35.198Z,101699.00
2019-05-11T23:10:08.149Z,101709.00
2019-05-11T23:12:38.720Z,101709.00
2019-05-11T23:15:13.552Z,101707.00
2019-05-11T23:17:44.087Z,101722.00
2019-05-11T23:20:14.743Z,101712.00
2019-05-11T23:22:56.817Z,101722.00
2019-05-11T23:25:20.965Z,101719.00
2019-05-11T23:27:51.812Z,101723.00
2019-05-11T23:30:23.234Z,101720.00
2019-05-11T23:33:03.418Z,101729.00
2019-05-11T23:35:33.718Z,101740.00
2019-05-11T23:38:05.111Z,101741.00
2019-05-11T23:40:37.992Z,101737.00
2019-05-11T23:43:08.954Z,101736.00
2019-05-11T23:45:40.497Z,101743.00
2019-05-11T23:48:11.205Z,101747.00
2019-05-11T23:50:42.176Z,101752.00
2019-05-11T23:53:12.598Z,101759.00
2019-05-11T23:55:43.084Z,101767.00
2019-05-11T23:58:13.539Z,101772.00
